sensor_id;sensor_type;location;lat;lon;timestamp;pressure;altitude;pressure_sealevel;temperature;humidity
19672;BME280;9983;51.114;13.788;2023-01-31T00:03:27;99261.34;;;4.43;100.00
19672;BME280;9983;51.114;13.788;2023-01-31T00:08:27;99285.91;;;4.36;100.00
19672;BME280;9983;51.114;13.788;2023-01-31T00:13:28;99273.91;;;4.22;100.00
19672;BME280;9983;51.114;13.788;2023-01-31T00:18:29;99283.97;;;4.28;100.00
19672;BME280;9983;51.114;13.788;2023-01-31T00:23:29;99281.19;;;4.20;100.00
19672;BME280;9983;51.114;13.788;2023-01-31T00:28:29;99287.59;;;4.27;100.00
19672;BME280;9983;51.114;13.788;2023-01-31T00:33:29;99277.84;;;4.18;100.00
19672;BME280;9983;51.114;13.788;2023-01-31T00:38:31;99278.13;;;4.34;100.00
19672;BME280;9983;51.114;13.788;2023-01-31T00:43:31;99285.66;;;4.48;100.00
19672;BME280;9983;51.114;13.788;2023-01-31T00:48:32;99295.41;;;4.19;100.00
19672;BME280;9983;51.114;13.788;2023-01-31T00:53:33;99302.69;;;4.17;100.00
19672;BME280;9983;51.114;13.788;2023-01-31T00:58:33;99299.91;;;4.47;100.00
19672;BME280;9983;51.114;13.788;2023-01-31T01:03:34;99314.72;;;4.40;100.00
19672;BME280;9983;51.114;13.788;2023-01-31T01:08:36;99331.72;;;4.28;100.00
19672;BME280;9983;51.114;13.788;2023-01-31T01:13:37;99338.16;;;4.06;100.00
19672;BME280;9983;51.114;13.788;2023-01-31T01:18:37;99354.03;;;3.97;100.00
19672;BME280;9983;51.114;13.788;2023-01-31T01:23:39;99348.31;;;3.92;100.00
19672;BME280;9983;51.114;13.788;2023-01-31T01:28:39;99375.22;;;3.87;100.00
19672;BME280;9983;51.114;13.788;2023-01-31T01:33:40;99369.88;;;3.77;100.00
19672;BME280;9983;51.114;13.788;2023-01-31T01:38:40;99361.88;;;3.58;100.00
19672;BME280;9983;51.114;13.788;2023-01-31T01:43:45;99383.75;;;3.60;100.00
19672;BME280;9983;51.114;13.788;2023-01-31T01:48:48;99383.28;;;3.76;100.00
19672;BME280;9983;51.114;13.788;2023-01-31T01:53:52;99388.56;;;3.66;100.00
19672;BME280;9983;51.114;13.788;2023-01-31T01:59:02;99407.19;;;3.55;100.00
19672;BME280;9983;51.114;13.788;2023-01-31T02:04:05;99408.00;;;3.76;100.00
19672;BME280;9983;51.114;13.788;2023-01-31T02:09:08;99408.09;;;3.65;100.00
19672;BME280;9983;51.114;13.788;2023-01-31T02:14:16;99408.63;;;3.59;100.00
19672;BME280;9983;51.114;13.788;2023-01-31T02:19:23;99397.19;;;3.68;100.00
19672;BME280;9983;51.114;13.788;2023-01-31T02:46:13;99438.81;;;3.77;100.00
19672;BME280;9983;51.114;13.788;2023-01-31T02:51:20;99431.56;;;3.79;100.00
19672;BME280;9983;51.114;13.788;2023-01-31T02:56:29;99457.31;;;3.89;100.00
19672;BME280;9983;51.114;13.788;2023-01-31T03:01:33;99472.69;;;3.95;100.00
19672;BME280;9983;51.114;13.788;2023-01-31T03:11:45;99489.19;;;3.98;100.00
19672;BME280;9983;51.114;13.788;2023-01-31T03:22:24;99502.66;;;4.16;100.00
19672;BME280;9983;51.114;13.788;2023-01-31T03:27:27;99523.78;;;3.97;100.00
19672;BME280;9983;51.114;13.788;2023-01-31T03:32:37;99540.13;;;4.02;100.00
19672;BME280;9983;51.114;13.788;2023-01-31T03:37:47;99534.75;;;4.13;100.00
19672;BME280;9983;51.114;13.788;2023-01-31T03:43:00;99523.66;;;3.77;100.00
19672;BME280;9983;51.114;13.788;2023-01-31T03:48:03;99536.94;;;3.98;100.00
19672;BME280;9983;51.114;13.788;2023-01-31T03:53:13;99530.78;;;3.98;100.00
19672;BME280;9983;51.114;13.788;2023-01-31T03:58:16;99537.13;;;3.86;100.00
19672;BME280;9983;51.114;13.788;2023-01-31T04:03:28;99536.50;;;3.72;100.00
19672;BME280;9983;51.114;13.788;2023-01-31T04:08:32;99551.81;;;3.69;100.00
19672;BME280;9983;51.114;13.788;2023-01-31T04:13:33;99547.88;;;3.63;100.00
19672;BME280;9983;51.114;13.788;2023-01-31T04:18:34;99558.16;;;3.77;100.00
19672;BME280;9983;51.114;13.788;2023-01-31T04:23:35;99556.16;;;3.49;100.00
19672;BME280;9983;51.114;13.788;2023-01-31T04:28:35;99563.91;;;3.41;100.00
19672;BME280;9983;51.114;13.788;2023-01-31T04:33:35;99589.22;;;3.34;100.00
19672;BME280;9983;51.114;13.788;2023-01-31T04:38:35;99588.34;;;3.65;100.00
19672;BME280;9983;51.114;13.788;2023-01-31T04:43:36;99586.91;;;3.61;100.00
19672;BME280;9983;51.114;13.788;2023-01-31T04:48:36;99591.31;;;3.51;100.00
19672;BME280;9983;51.114;13.788;2023-01-31T04:53:38;99595.69;;;3.41;100.00
19672;BME280;9983;51.114;13.788;2023-01-31T04:58:38;99583.31;;;3.62;100.00
19672;BME280;9983;51.114;13.788;2023-01-31T05:03:40;99581.03;;;3.78;100.00
19672;BME280;9983;51.114;13.788;2023-01-31T05:08:40;99581.38;;;3.64;100.00
19672;BME280;9983;51.114;13.788;2023-01-31T05:13:41;99612.22;;;3.65;100.00
19672;BME280;9983;51.114;13.788;2023-01-31T05:18:41;99589.78;;;3.69;100.00
19672;BME280;9983;51.114;13.788;2023-01-31T05:23:42;99609.00;;;4.03;100.00
19672;BME280;9983;51.114;13.788;2023-01-31T05:28:42;99614.88;;;4.07;100.00
19672;BME280;9983;51.114;13.788;2023-01-31T05:33:42;99611.88;;;4.21;100.00
19672;BME280;9983;51.114;13.788;2023-01-31T05:38:43;99618.94;;;4.11;100.00
19672;BME280;9983;51.114;13.788;2023-01-31T05:43:43;99614.88;;;4.07;100.00
19672;BME280;9983;51.114;13.788;2023-01-31T05:48:44;99613.81;;;4.19;100.00
19672;BME280;9983;51.114;13.788;2023-01-31T05:53:44;99615.06;;;3.94;100.00
19672;BME280;9983;51.114;13.788;2023-01-31T05:58:44;99610.34;;;3.98;100.00
19672;BME280;9983;51.114;13.788;2023-01-31T06:03:49;99610.66;;;4.25;100.00
19672;BME280;9983;51.114;13.788;2023-01-31T06:08:49;99617.97;;;4.12;100.00
19672;BME280;9983;51.114;13.788;2023-01-31T06:13:49;99613.44;;;4.03;100.00
19672;BME280;9983;51.114;13.788;2023-01-31T06:18:50;99625.13;;;3.91;100.00
19672;BME280;9983;51.114;13.788;2023-01-31T06:23:50;99635.38;;;4.05;100.00
19672;BME280;9983;51.114;13.788;2023-01-31T06:28:50;99621.88;;;4.08;100.00
19672;BME280;9983;51.114;13.788;2023-01-31T06:33:51;99630.41;;;3.91;100.00
19672;BME280;9983;51.114;13.788;2023-01-31T06:38:52;99633.25;;;3.99;100.00
19672;BME280;9983;51.114;13.788;2023-01-31T06:43:52;99636.81;;;4.09;100.00
19672;BME280;9983;51.114;13.788;2023-01-31T06:48:52;99647.16;;;3.91;100.00
19672;BME280;9983;51.114;13.788;2023-01-31T06:53:52;99633.91;;;4.12;100.00
19672;BME280;9983;51.114;13.788;2023-01-31T06:58:55;99627.03;;;3.89;100.00
19672;BME280;9983;51.114;13.788;2023-01-31T07:03:55;99648.56;;;3.74;100.00
19672;BME280;9983;51.114;13.788;2023-01-31T07:08:55;99647.34;;;3.78;100.00
19672;BME280;9983;51.114;13.788;2023-01-31T07:13:55;99652.59;;;4.31;100.00
19672;BME280;9983;51.114;13.788;2023-01-31T07:18:56;99668.97;;;3.95;100.00
19672;BME280;9983;51.114;13.788;2023-01-31T07:23:56;99664.31;;;4.08;100.00
19672;BME280;9983;51.114;13.788;2023-01-31T07:28:56;99659.13;;;3.86;100.00
19672;BME280;9983;51.114;13.788;2023-01-31T07:33:56;99665.44;;;3.73;100.00
19672;BME280;9983;51.114;13.788;2023-01-31T07:38:57;99664.94;;;3.79;100.00
19672;BME280;9983;51.114;13.788;2023-01-31T07:43:58;99657.16;;;3.67;100.00
19672;BME280;9983;51.114;13.788;2023-01-31T07:48:59;99670.97;;;3.81;100.00
19672;BME280;9983;51.114;13.788;2023-01-31T07:53:59;99671.47;;;3.75;100.00
19672;BME280;9983;51.114;13.788;2023-01-31T07:59:00;99660.81;;;3.87;100.00
19672;BME280;9983;51.114;13.788;2023-01-31T08:04:00;99673.91;;;3.99;100.00
19672;BME280;9983;51.114;13.788;2023-01-31T08:09:02;99664.81;;;4.02;100.00
19672;BME280;9983;51.114;13.788;2023-01-31T08:14:02;99674.34;;;4.04;100.00
19672;BME280;9983;51.114;13.788;2023-01-31T08:19:03;99675.31;;;4.24;100.00
19672;BME280;9983;51.114;13.788;2023-01-31T08:24:03;99669.31;;;4.52;100.00
19672;BME280;9983;51.114;13.788;2023-01-31T08:29:04;99661.81;;;4.57;100.00
19672;BME280;9983;51.114;13.788;2023-01-31T08:34:05;99671.63;;;4.36;100.00
19672;BME280;9983;51.114;13.788;2023-01-31T08:39:06;99670.03;;;4.24;100.00
19672;BME280;9983;51.114;13.788;2023-01-31T08:44:06;99659.53;;;4.43;100.00
19672;BME280;9983;51.114;13.788;2023-01-31T08:49:06;99661.78;;;4.27;100.00
19672;BME280;9983;51.114;13.788;2023-01-31T08:54:07;99666.59;;;4.64;100.00
19672;BME280;9983;51.114;13.788;2023-01-31T08:59:10;99658.91;;;4.91;100.00
19672;BME280;9983;51.114;13.788;2023-01-31T09:04:11;99657.13;;;4.71;100.00
19672;BME280;9983;51.114;13.788;2023-01-31T09:09:11;99652.59;;;4.62;100.00
19672;BME280;9983;51.114;13.788;2023-01-31T09:14:11;99659.50;;;5.04;100.00
19672;BME280;9983;51.114;13.788;2023-01-31T09:19:11;99663.66;;;4.97;100.00
19672;BME280;9983;51.114;13.788;2023-01-31T09:24:12;99655.34;;;4.81;100.00
19672;BME280;9983;51.114;13.788;2023-01-31T09:29:12;99650.56;;;5.15;100.00
19672;BME280;9983;51.114;13.788;2023-01-31T09:34:12;99647.78;;;5.16;100.00
19672;BME280;9983;51.114;13.788;2023-01-31T09:39:14;99641.84;;;5.03;100.00
19672;BME280;9983;51.114;13.788;2023-01-31T09:49:28;99627.38;;;5.26;100.00
19672;BME280;9983;51.114;13.788;2023-01-31T09:54:38;99629.34;;;5.24;99.80
19672;BME280;9983;51.114;13.788;2023-01-31T09:59:57;99622.53;;;5.60;98.42
19672;BME280;9983;51.114;13.788;2023-01-31T10:05:11;99622.34;;;5.33;98.85
19672;BME280;9983;51.114;13.788;2023-01-31T10:10:44;99616.47;;;5.87;98.04
19672;BME280;9983;51.114;13.788;2023-01-31T10:15:56;99591.22;;;6.30;96.95
19672;BME280;9983;51.114;13.788;2023-01-31T10:21:05;99599.84;;;5.85;98.63
19672;BME280;9983;51.114;13.788;2023-01-31T10:26:21;99617.31;;;5.78;97.82
19672;BME280;9983;51.114;13.788;2023-01-31T10:31:35;99606.69;;;5.97;97.89
19672;BME280;9983;51.114;13.788;2023-01-31T10:36:56;99588.22;;;5.77;97.27
19672;BME280;9983;51.114;13.788;2023-01-31T10:47:01;99580.09;;;5.88;94.66
19672;BME280;9983;51.114;13.788;2023-01-31T10:57:27;99563.00;;;5.81;93.65
19672;BME280;9983;51.114;13.788;2023-01-31T11:02:28;99566.38;;;5.63;92.57
19672;BME280;9983;51.114;13.788;2023-01-31T11:07:29;99549.56;;;5.63;92.30
19672;BME280;9983;51.114;13.788;2023-01-31T11:12:41;99540.44;;;5.94;93.09
19672;BME280;9983;51.114;13.788;2023-01-31T11:17:51;99509.16;;;5.50;91.94
19672;BME280;9983;51.114;13.788;2023-01-31T11:22:53;99513.91;;;5.56;93.47
19672;BME280;9983;51.114;13.788;2023-01-31T11:27:56;99514.84;;;5.84;95.49
19672;BME280;9983;51.114;13.788;2023-01-31T11:32:58;99491.28;;;5.98;92.60
19672;BME280;9983;51.114;13.788;2023-01-31T11:38:18;99483.78;;;5.65;92.35
19672;BME280;9983;51.114;13.788;2023-01-31T11:48:22;99471.00;;;5.78;88.48
19672;BME280;9983;51.114;13.788;2023-01-31T11:53:25;99486.84;;;5.89;88.40
19672;BME280;9983;51.114;13.788;2023-01-31T11:58:32;99456.41;;;6.29;87.39
19672;BME280;9983;51.114;13.788;2023-01-31T12:03:35;99447.75;;;6.27;86.16
19672;BME280;9983;51.114;13.788;2023-01-31T12:08:42;99411.41;;;6.53;85.63
19672;BME280;9983;51.114;13.788;2023-01-31T12:29:48;99403.22;;;6.64;84.95
19672;BME280;9983;51.114;13.788;2023-01-31T12:35:24;99384.63;;;6.72;84.68
19672;BME280;9983;51.114;13.788;2023-01-31T12:51:34;99387.78;;;6.23;95.14
19672;BME280;9983;51.114;13.788;2023-01-31T13:02:31;99337.13;;;5.60;99.13
19672;BME280;9983;51.114;13.788;2023-01-31T13:07:44;99337.28;;;5.86;98.73
19672;BME280;9983;51.114;13.788;2023-01-31T13:12:47;99325.41;;;6.07;98.08
19672;BME280;9983;51.114;13.788;2023-01-31T13:17:53;99336.16;;;5.79;99.04
19672;BME280;9983;51.114;13.788;2023-01-31T13:22:56;99318.41;;;5.52;100.00
19672;BME280;9983;51.114;13.788;2023-01-31T13:28:02;99303.94;;;5.27;100.00
19672;BME280;9983;51.114;13.788;2023-01-31T13:33:22;99295.59;;;5.12;100.00
19672;BME280;9983;51.114;13.788;2023-01-31T13:38:26;99297.84;;;5.07;100.00
19672;BME280;9983;51.114;13.788;2023-01-31T13:43:29;99277.72;;;5.42;100.00
19672;BME280;9983;51.114;13.788;2023-01-31T13:48:50;99276.59;;;5.07;100.00
19672;BME280;9983;51.114;13.788;2023-01-31T13:53:59;99276.56;;;5.17;100.00
19672;BME280;9983;51.114;13.788;2023-01-31T13:59:06;99271.34;;;4.69;100.00
19672;BME280;9983;51.114;13.788;2023-01-31T14:09:23;99264.06;;;4.80;100.00
19672;BME280;9983;51.114;13.788;2023-01-31T14:35:32;99234.75;;;4.63;100.00
19672;BME280;9983;51.114;13.788;2023-01-31T14:40:53;99229.19;;;4.66;100.00
19672;BME280;9983;51.114;13.788;2023-01-31T14:56:50;99225.88;;;4.35;100.00
19672;BME280;9983;51.114;13.788;2023-01-31T15:01:52;99206.59;;;4.42;100.00
19672;BME280;9983;51.114;13.788;2023-01-31T15:06:54;99217.72;;;4.55;100.00
19672;BME280;9983;51.114;13.788;2023-01-31T15:11:56;99207.97;;;4.46;100.00
19672;BME280;9983;51.114;13.788;2023-01-31T15:17:18;99198.78;;;4.31;100.00
19672;BME280;9983;51.114;13.788;2023-01-31T15:22:20;99195.72;;;4.26;100.00
19672;BME280;9983;51.114;13.788;2023-01-31T15:27:25;99196.28;;;4.20;100.00
19672;BME280;9983;51.114;13.788;2023-01-31T15:37:58;99208.56;;;4.02;100.00
19672;BME280;9983;51.114;13.788;2023-01-31T15:43:21;99209.13;;;4.34;100.00
19672;BME280;9983;51.114;13.788;2023-01-31T15:48:21;99212.75;;;4.33;100.00
19672;BME280;9983;51.114;13.788;2023-01-31T15:53:24;99201.88;;;4.17;100.00
19672;BME280;9983;51.114;13.788;2023-01-31T15:58:26;99216.13;;;4.16;100.00
19672;BME280;9983;51.114;13.788;2023-01-31T16:03:33;99204.41;;;4.09;100.00
19672;BME280;9983;51.114;13.788;2023-01-31T16:08:36;99226.56;;;3.89;100.00
19672;BME280;9983;51.114;13.788;2023-01-31T16:13:38;99223.09;;;4.17;100.00
19672;BME280;9983;51.114;13.788;2023-01-31T16:18:46;99213.31;;;3.89;100.00
19672;BME280;9983;51.114;13.788;2023-01-31T16:23:56;99213.88;;;4.02;100.00
19672;BME280;9983;51.114;13.788;2023-01-31T16:28:59;99208.88;;;3.99;100.00
19672;BME280;9983;51.114;13.788;2023-01-31T16:34:01;99228.66;;;3.95;100.00
19672;BME280;9983;51.114;13.788;2023-01-31T16:39:05;99214.16;;;4.08;100.00
19672;BME280;9983;51.114;13.788;2023-01-31T16:44:10;99214.03;;;4.10;100.00
19672;BME280;9983;51.114;13.788;2023-01-31T16:49:29;99226.69;;;4.35;100.00
19672;BME280;9983;51.114;13.788;2023-01-31T16:54:42;99220.00;;;4.12;100.00
19672;BME280;9983;51.114;13.788;2023-01-31T16:59:46;99217.50;;;4.20;100.00
19672;BME280;9983;51.114;13.788;2023-01-31T17:04:49;99227.44;;;4.18;100.00
19672;BME280;9983;51.114;13.788;2023-01-31T17:09:55;99192.63;;;4.31;100.00
19672;BME280;9983;51.114;13.788;2023-01-31T17:14:56;99216.38;;;4.32;100.00
19672;BME280;9983;51.114;13.788;2023-01-31T17:19:57;99220.00;;;4.31;100.00
19672;BME280;9983;51.114;13.788;2023-01-31T17:24:57;99234.25;;;4.40;100.00
19672;BME280;9983;51.114;13.788;2023-01-31T17:29:57;99212.50;;;4.17;100.00
19672;BME280;9983;51.114;13.788;2023-01-31T17:34:58;99206.03;;;4.29;100.00
19672;BME280;9983;51.114;13.788;2023-01-31T17:39:58;99202.00;;;4.25;100.00
19672;BME280;9983;51.114;13.788;2023-01-31T17:44:58;99202.41;;;4.30;100.00
19672;BME280;9983;51.114;13.788;2023-01-31T17:49:58;99198.78;;;4.31;100.00
19672;BME280;9983;51.114;13.788;2023-01-31T17:54:59;99193.31;;;4.42;100.00
19672;BME280;9983;51.114;13.788;2023-01-31T17:59:59;99177.94;;;4.36;100.00
19672;BME280;9983;51.114;13.788;2023-01-31T18:04:59;99177.03;;;4.18;100.00
19672;BME280;9983;51.114;13.788;2023-01-31T18:10:00;99180.91;;;4.33;100.00
19672;BME280;9983;51.114;13.788;2023-01-31T18:15:01;99181.06;;;4.69;100.00
19672;BME280;9983;51.114;13.788;2023-01-31T18:20:02;99159.31;;;4.65;100.00
19672;BME280;9983;51.114;13.788;2023-01-31T18:25:03;99164.91;;;4.62;100.00
19672;BME280;9983;51.114;13.788;2023-01-31T18:30:05;99161.00;;;4.56;100.00
19672;BME280;9983;51.114;13.788;2023-01-31T18:35:06;99140.47;;;4.58;100.00
19672;BME280;9983;51.114;13.788;2023-01-31T18:40:07;99142.66;;;5.00;100.00
19672;BME280;9983;51.114;13.788;2023-01-31T18:45:08;99135.97;;;4.96;100.00
19672;BME280;9983;51.114;13.788;2023-01-31T18:50:09;99160.09;;;4.85;100.00
19672;BME280;9983;51.114;13.788;2023-01-31T18:55:10;99156.63;;;5.02;100.00
19672;BME280;9983;51.114;13.788;2023-01-31T19:00:10;99153.06;;;5.39;100.00
19672;BME280;9983;51.114;13.788;2023-01-31T19:05:11;99155.63;;;5.30;100.00
19672;BME280;9983;51.114;13.788;2023-01-31T19:10:11;99154.97;;;5.01;100.00
19672;BME280;9983;51.114;13.788;2023-01-31T19:15:11;99143.66;;;5.26;100.00
19672;BME280;9983;51.114;13.788;2023-01-31T19:20:12;99141.19;;;5.15;100.00
19672;BME280;9983;51.114;13.788;2023-01-31T19:25:12;99122.75;;;5.31;100.00
19672;BME280;9983;51.114;13.788;2023-01-31T19:30:13;99134.09;;;5.33;100.00
19672;BME280;9983;51.114;13.788;2023-01-31T19:35:14;99127.97;;;5.68;100.00
19672;BME280;9983;51.114;13.788;2023-01-31T19:40:14;99133.34;;;5.59;100.00
19672;BME280;9983;51.114;13.788;2023-01-31T19:45:14;99143.81;;;5.43;100.00
19672;BME280;9983;51.114;13.788;2023-01-31T19:50:15;99126.25;;;5.32;100.00
19672;BME280;9983;51.114;13.788;2023-01-31T19:55:15;99132.69;;;5.29;100.00
19672;BME280;9983;51.114;13.788;2023-01-31T20:00:16;99143.66;;;5.26;100.00
19672;BME280;9983;51.114;13.788;2023-01-31T20:05:16;99148.81;;;5.46;100.00
19672;BME280;9983;51.114;13.788;2023-01-31T20:10:17;99185.47;;;5.52;100.00
19672;BME280;9983;51.114;13.788;2023-01-31T20:15:18;99135.59;;;5.54;100.00
19672;BME280;9983;51.114;13.788;2023-01-31T20:20:18;99162.63;;;5.31;100.00
19672;BME280;9983;51.114;13.788;2023-01-31T20:25:19;99149.63;;;5.28;100.00
19672;BME280;9983;51.114;13.788;2023-01-31T20:30:19;99158.69;;;5.36;100.00
19672;BME280;9983;51.114;13.788;2023-01-31T20:35:22;99148.66;;;5.29;100.00
19672;BME280;9983;51.114;13.788;2023-01-31T20:40:22;99133.63;;;5.56;100.00
19672;BME280;9983;51.114;13.788;2023-01-31T20:45:22;99132.94;;;4.91;100.00
19672;BME280;9983;51.114;13.788;2023-01-31T20:50:27;99119.50;;;4.92;100.00
19672;BME280;9983;51.114;13.788;2023-01-31T20:55:27;99111.88;;;5.07;100.00
19672;BME280;9983;51.114;13.788;2023-01-31T21:00:29;99110.16;;;5.33;100.00
19672;BME280;9983;51.114;13.788;2023-01-31T21:05:29;99116.84;;;5.55;100.00
19672;BME280;9983;51.114;13.788;2023-01-31T21:10:30;99146.91;;;5.38;100.00
19672;BME280;9983;51.114;13.788;2023-01-31T21:15:31;99139.84;;;5.47;100.00
19672;BME280;9983;51.114;13.788;2023-01-31T21:20:31;99137.81;;;5.58;100.00
19672;BME280;9983;51.114;13.788;2023-01-31T21:25:31;99126.19;;;5.42;100.00
19672;BME280;9983;51.114;13.788;2023-01-31T21:30:31;99146.25;;;5.54;100.00
19672;BME280;9983;51.114;13.788;2023-01-31T21:35:32;99184.53;;;5.61;100.00
19672;BME280;9983;51.114;13.788;2023-01-31T21:40:32;99190.38;;;5.19;100.00
19672;BME280;9983;51.114;13.788;2023-01-31T21:45:32;99178.19;;;5.44;100.00
19672;BME280;9983;51.114;13.788;2023-01-31T21:50:38;99176.81;;;5.22;100.00
19672;BME280;9983;51.114;13.788;2023-01-31T21:55:39;99176.78;;;5.50;100.00
19672;BME280;9983;51.114;13.788;2023-01-31T22:00:39;99167.47;;;5.18;100.00
19672;BME280;9983;51.114;13.788;2023-01-31T22:05:42;99153.41;;;5.71;100.00
19672;BME280;9983;51.114;13.788;2023-01-31T22:10:42;99163.69;;;5.39;100.00
19672;BME280;9983;51.114;13.788;2023-01-31T22:15:43;99160.38;;;5.72;100.00
19672;BME280;9983;51.114;13.788;2023-01-31T22:20:43;99152.19;;;6.19;100.00
19672;BME280;9983;51.114;13.788;2023-01-31T22:25:44;99158.09;;;6.13;100.00
19672;BME280;9983;51.114;13.788;2023-01-31T22:30:51;99148.84;;;5.81;100.00
19672;BME280;9983;51.114;13.788;2023-01-31T22:35:52;99141.31;;;6.38;100.00
19672;BME280;9983;51.114;13.788;2023-01-31T22:40:59;99133.09;;;6.05;100.00
19672;BME280;9983;51.114;13.788;2023-01-31T22:46:00;99124.91;;;5.99;100.00
19672;BME280;9983;51.114;13.788;2023-01-31T22:51:06;99141.56;;;5.83;100.00
19672;BME280;9983;51.114;13.788;2023-01-31T22:56:10;99146.41;;;6.05;100.00
19672;BME280;9983;51.114;13.788;2023-01-31T23:01:17;99152.97;;;5.93;100.00
19672;BME280;9983;51.114;13.788;2023-01-31T23:06:17;99148.94;;;5.89;100.00
19672;BME280;9983;51.114;13.788;2023-01-31T23:11:18;99158.81;;;5.97;100.00
19672;BME280;9983;51.114;13.788;2023-01-31T23:16:21;99162.25;;;5.89;100.00
19672;BME280;9983;51.114;13.788;2023-01-31T23:21:44;99152.38;;;5.99;100.00
19672;BME280;9983;51.114;13.788;2023-01-31T23:26:45;99166.47;;;5.82;100.00
19672;BME280;9983;51.114;13.788;2023-01-31T23:31:45;99156.63;;;5.92;100.00
19672;BME280;9983;51.114;13.788;2023-01-31T23:36:46;99177.59;;;5.95;100.00
19672;BME280;9983;51.114;13.788;2023-01-31T23:41:46;99171.06;;;6.07;100.00
19672;BME280;9983;51.114;13.788;2023-01-31T23:46:47;99181.16;;;5.68;100.00
19672;BME280;9983;51.114;13.788;2023-01-31T23:51:47;99184.13;;;5.83;100.00
19672;BME280;9983;51.114;13.788;2023-01-31T23:56:47;99180.38;;;5.76;100.00
